Thursday, October 19, 2017, 7:04 AM EDT
Back to Local

KOWD, Norwood Memorial Airport

Location: Norwood, MA, United States Lat: 42.183
Local Time: 7:04 AM EDT (11:04 GMT) Lon: -71.167
Time Zone: US/Eastern Elev: 49 ft

Show me the last for .
Show Decoded

2017-10-19 06:30 METAR KOWD 191030Z AUTO 00000KT 10SM BKN003 03/02 A3023 RMK AO2 T00280022 =
2017-10-19 06:06 METAR KOWD 191006Z AUTO 00000KT 10SM BKN005 03/02 A3023 RMK AO2 T00330022 =
2017-10-19 05:53 METAR KOWD 190953Z AUTO 00000KT 10SM FEW005 03/02 A3024 RMK AO2 SLP238 I1000
                 T00330022 =
2017-10-19 05:32 METAR KOWD 190932Z AUTO 00000KT 9SM SCT006 03/02 A3024 RMK AO2 I1000 T00280017 =
2017-10-19 05:25 METAR KOWD 190925Z AUTO 00000KT 2 1/2SM BR SCT006 03/02 A3024 RMK AO2 VIS 3/4V5
                 I1000 T00280022 =
2017-10-19 05:16 METAR KOWD 190916Z AUTO 00000KT 1 1/4SM BR BKN006 03/02 A3024 RMK AO2 I1000
                 T00330022 =
2017-10-19 05:05 METAR KOWD 190905Z AUTO 00000KT 2SM BR FEW007 03/02 A3024 RMK AO2 VIS 3/4V5
                 T00280022 =
2017-10-19 04:53 METAR KOWD 190853Z AUTO 00000KT 10SM CLR 03/02 A3024 RMK AO2 SLP241 T00280022
                 55003 =
2017-10-19 04:37 METAR KOWD 190837Z AUTO 00000KT 4SM BR FEW004 04/03 A3024 RMK AO2 T00390028 =
2017-10-19 04:35 METAR KOWD 190835Z AUTO 00000KT 1 1/4SM BR FEW004 04/03 A3024 RMK AO2 T00390028
                 =
2017-10-19 04:23 METAR KOWD 190823Z AUTO 00000KT 3/4SM BR VV004 04/03 A3024 RMK AO2 T00390028 =
2017-10-19 04:20 METAR KOWD 190820Z AUTO 00000KT 1 1/2SM BR FEW003 03/03 A3024 RMK AO2 T00330028
                 =
2017-10-19 03:59 METAR KOWD 190759Z AUTO 00000KT 3SM BR SCT003 03/02 A3024 RMK AO2 T00330022 =
2017-10-19 03:57 METAR KOWD 190757Z AUTO 00000KT 1 1/4SM BR SCT003 03/02 A3024 RMK AO2 T00330022
                 =
2017-10-19 03:53 METAR KOWD 190753Z AUTO 00000KT 1/2SM FG VV003 03/03 A3024 RMK AO2 SLP240
                 T00330028 =
2017-10-19 03:48 METAR KOWD 190748Z AUTO 00000KT 1/4SM FG VV004 03/03 A3024 RMK AO2 =
2017-10-19 03:37 METAR KOWD 190737Z AUTO 00000KT 3/4SM BR CLR 03/02 A3024 RMK AO2 T00280022 =
2017-10-19 03:10 METAR KOWD 190710Z AUTO 00000KT 3SM BR SCT002 04/03 A3024 RMK AO2 T00440033 =
2017-10-19 03:08 METAR KOWD 190708Z AUTO 00000KT 1 1/4SM BR SCT002 05/03 A3025 RMK AO2 T00500033
                 =
2017-10-19 02:53 METAR KOWD 190653Z AUTO 00000KT 1/4SM FG VV002 04/03 A3025 RMK AO2 SLP244
                 T00390028 =
2017-10-19 02:40 METAR KOWD 190640Z AUTO 00000KT 1/2SM FG VV002 03/02 A3026 RMK AO2 T00330022 =
2017-10-19 02:36 METAR KOWD 190636Z AUTO 00000KT 1 1/4SM BR CLR 03/02 A3026 RMK AO2 T00330022 =
2017-10-19 01:53 METAR KOWD 190553Z AUTO 00000KT 10SM CLR 04/03 A3026 RMK AO2 SLP246 T00390028
                 10089 20039 56005 =
2017-10-19 01:21 METAR KOWD 190521Z AUTO 00000KT 5SM BR FEW002 06/04 A3026 RMK AO2 T00560044 =
2017-10-19 01:19 METAR KOWD 190519Z AUTO 00000KT 1 1/2SM BR FEW002 06/04 A3026 RMK AO2 VIS 1/4V5
                 T00560044 =
2017-10-19 01:04 METAR KOWD 190504Z AUTO 00000KT 1/4SM FG VV002 04/03 A3026 RMK AO2 T00390033 =
2017-10-19 00:57 METAR KOWD 190457Z AUTO 00000KT 1SM BR VV002 04/03 A3026 RMK AO2 T00390033 =
2017-10-19 00:53 METAR KOWD 190453Z AUTO 00000KT 2 1/2SM BR FEW002 04/03 A3026 RMK AO2 SLP246
                 T00440033 402330028 =
2017-10-19 00:18 METAR KOWD 190418Z AUTO 00000KT 3/4SM BR CLR 04/04 A3026 RMK AO2 T00440039 =
2017-10-18 23:53 METAR KOWD 190353Z AUTO 00000KT 10SM CLR 05/04 A3027 RMK AO2 SLP248 T00500039 =
2017-10-18 23:41 METAR KOWD 190341Z AUTO 00000KT 10SM CLR 06/04 A3027 RMK AO2 T00560044 =
2017-10-18 23:32 METAR KOWD 190332Z AUTO 00000KT 1SM BR CLR 07/06 A3027 RMK AO2 T00670061 =
2017-10-18 23:19 METAR KOWD 190319Z AUTO 00000KT 3/4SM BR VV002 04/04 A3027 RMK AO2 VIS 1/2V2
                 T00440039 =
2017-10-18 23:12 METAR KOWD 190312Z AUTO 00000KT 1 3/4SM BR CLR 07/06 A3027 RMK AO2 T00720056 =
2017-10-18 22:53 METAR KOWD 190253Z AUTO 00000KT 10SM CLR 06/05 A3027 RMK AO2 SLP251 T00610050
                 50005 =
2017-10-18 21:53 METAR KOWD 190153Z 00000KT 10SM CLR 08/07 A3028 RMK AO2 SLP252 T00830067 =
2017-10-18 20:53 METAR KOWD 190053Z 00000KT 10SM CLR 09/07 A3027 RMK AO2 SLP249 T00890072 =
2017-10-18 19:53 METAR KOWD 182353Z 00000KT 10SM CLR 09/07 A3026 RMK AO2 SLP246 T00940067 10233
                 20089 51014 =
2017-10-18 18:53 METAR KOWD 182253Z 00000KT 10SM CLR 12/08 A3025 RMK AO2 SLP242 T01220078 =
2017-10-18 17:53 METAR KOWD 182153Z 00000KT 10SM CLR 18/07 A3023 RMK AO2 SLP237 T01830067 =
2017-10-18 16:53 METAR KOWD 182053Z 25006KT 10SM CLR 22/04 A3022 RMK AO2 SLP232 T02220044 53001 =
2017-10-18 15:53 METAR KOWD 181953Z 24006KT 10SM CLR 23/04 A3021 RMK AO2 SLP231 T02280039 =
2017-10-18 14:53 METAR KOWD 181853Z 26005KT 10SM CLR 23/04 A3022 RMK AO2 SLP231 T02330044 =
2017-10-18 13:53 METAR KOWD 181753Z VRB03KT 10SM CLR 22/06 A3022 RMK AO2 SLP231 T02220056 10228
                 20083 58018 =
2017-10-18 12:53 METAR KOWD 181653Z 26008KT 240V300 10SM CLR 22/07 A3024 RMK AO2 SLP240 T02220067
                 =
2017-10-18 11:53 METAR KOWD 181553Z 25007KT 10SM CLR 21/08 A3027 RMK AO2 SLP249 T02060078 =
2017-10-18 10:53 METAR KOWD 181453Z 23006KT 10SM CLR 18/07 A3027 RMK AO2 SLP250 T01830072 50009 =
2017-10-18 09:53 METAR KOWD 181353Z 23004KT 10SM CLR 15/06 A3027 RMK AO2 SLP250 T01500061 =
2017-10-18 08:53 METAR KOWD 181253Z 22005KT 10SM CLR 12/05 A3026 RMK AO2 SLP246 T01220050 =
2017-10-18 07:53 METAR KOWD 181153Z 00000KT 10SM CLR 08/04 A3024 RMK AO2 SLP241 T00830044 10094
                 20028 53009 =

Support USWX by starting your Amazon purchase here.